Time;durP1;ratioP1;P1;durP2;ratioP2;P2;SDS_P1;SDS_P2;PMS_P1;PMS_P2;Temp;Humidity;BMP_temperature;BMP_pressure;BME280_temperature;BME280_humidity;BME280_pressure;Samples;Min_cycle;Max_cycle;Signal;HPM_P1;HPM_P2
2021/10/07 00:00:20;;;;;;;8.53;7.10;;;14.60;99.90;;;;;;5110334;28;20664;-73
2021/10/07 00:02:47;;;;;;;11.47;8.10;;;14.60;99.90;;;;;;5110110;28;20231;-73
2021/10/07 00:05:14;;;;;;;10.50;8.57;;;14.60;99.90;;;;;;5112167;28;20672;-73
2021/10/07 00:07:41;;;;;;;10.90;7.80;;;14.50;99.90;;;;;;5111094;28;20200;-73
2021/10/07 00:10:09;;;;;;;8.23;6.90;;;14.50;99.90;;;;;;5106108;28;20583;-73
2021/10/07 00:12:36;;;;;;;7.50;6.63;;;14.50;99.90;;;;;;5107063;28;20207;-72
2021/10/07 00:15:04;;;;;;;8.47;6.53;;;14.50;99.90;;;;;;5111037;28;20218;-73
2021/10/07 00:17:33;;;;;;;6.87;6.17;;;14.50;99.90;;;;;;5110682;28;20582;-73
2021/10/07 00:20:00;;;;;;;8.00;6.43;;;14.50;99.90;;;;;;5107806;28;20223;-73
2021/10/07 00:22:27;;;;;;;9.77;6.97;;;14.50;99.90;;;;;;5105025;28;20308;-73
2021/10/07 00:24:54;;;;;;;10.43;7.93;;;14.50;99.90;;;;;;5110936;28;20203;-73
2021/10/07 00:27:21;;;;;;;9.80;6.50;;;14.50;99.90;;;;;;5108858;28;20199;-73
2021/10/07 00:29:50;;;;;;;8.33;6.47;;;14.50;99.90;;;;;;5109797;28;20199;-73
2021/10/07 00:32:20;;;;;;;7.53;6.03;;;14.50;99.90;;;;;;5108813;28;20700;-73
2021/10/07 00:35:07;;;;;;;6.80;5.80;;;14.50;99.90;;;;;;5111877;28;20217;-73
2021/10/07 00:40:19;;;;;;;9.77;7.23;;;14.50;99.90;;;;;;5100978;28;20199;-74
2021/10/07 00:42:46;;;;;;;10.27;6.87;;;14.50;99.90;;;;;;5107888;28;20195;-74
2021/10/07 00:45:14;;;;;;;7.13;5.73;;;14.50;99.90;;;;;;5111325;28;20755;-73
2021/10/07 00:47:41;;;;;;;13.77;6.30;;;14.50;99.90;;;;;;5099910;28;20214;-74
2021/10/07 00:50:10;;;;;;;10.00;6.00;;;14.50;99.90;;;;;;5100819;27;20188;-73
2021/10/07 00:52:37;;;;;;;7.30;6.47;;;14.50;99.90;;;;;;5110065;28;20674;-74
2021/10/07 00:55:07;;;;;;;6.03;4.97;;;14.50;99.90;;;;;;5111068;28;20584;-74
2021/10/07 00:57:34;;;;;;;6.73;5.93;;;14.50;99.90;;;;;;5108513;27;20206;-74
2021/10/07 01:00:01;;;;;;;9.30;6.57;;;14.50;99.90;;;;;;5109120;28;20205;-74
2021/10/07 01:02:27;;;;;;;10.00;6.70;;;14.50;99.90;;;;;;5109359;28;20249;-74
2021/10/07 01:04:55;;;;;;;9.40;7.43;;;14.50;99.90;;;;;;5100441;28;20269;-74
2021/10/07 01:07:24;;;;;;;10.13;6.10;;;14.40;99.90;;;;;;5110529;28;20285;-74
2021/10/07 01:09:51;;;;;;;6.57;5.70;;;14.40;99.90;;;;;;5100456;28;20199;-73
2021/10/07 01:12:18;;;;;;;5.97;4.93;;;14.50;99.90;;;;;;5106721;28;20297;-72
2021/10/07 01:14:47;;;;;;;6.60;5.53;;;14.50;99.90;;;;;;5110995;27;20257;-73
2021/10/07 01:17:16;;;;;;;7.13;6.30;;;14.40;99.90;;;;;;5108614;27;20202;-73
2021/10/07 01:19:45;;;;;;;5.80;5.27;;;14.50;99.90;;;;;;5110615;28;20208;-73
2021/10/07 01:22:12;;;;;;;6.17;4.90;;;14.50;99.90;;;;;;5107105;28;20195;-73
2021/10/07 01:24:39;;;;;;;6.67;5.27;;;14.50;99.90;;;;;;5109260;28;20679;-73
2021/10/07 01:27:07;;;;;;;8.73;6.20;;;14.50;99.90;;;;;;5108836;28;21619;-73
2021/10/07 01:29:34;;;;;;;6.73;5.80;;;14.50;99.90;;;;;;5107754;28;20612;-73
2021/10/07 01:32:02;;;;;;;6.97;5.43;;;14.50;99.90;;;;;;5109681;28;20252;-72
2021/10/07 01:34:31;;;;;;;7.43;5.67;;;14.50;99.90;;;;;;5109464;28;20233;-73
2021/10/07 01:37:00;;;;;;;7.00;5.27;;;14.50;99.90;;;;;;5108636;28;20218;-72
2021/10/07 01:39:28;;;;;;;8.43;5.97;;;14.50;99.90;;;;;;5109356;28;20285;-73
2021/10/07 01:41:55;;;;;;;5.40;4.90;;;14.50;99.90;;;;;;5107549;28;20211;-72
2021/10/07 01:44:24;;;;;;;8.90;5.40;;;14.50;99.90;;;;;;5108124;27;20195;-74
2021/10/07 01:46:52;;;;;;;6.87;5.80;;;14.50;99.90;;;;;;5107329;28;20200;-73
2021/10/07 01:49:19;;;;;;;6.27;5.10;;;14.50;99.90;;;;;;5101859;28;20192;-73
2021/10/07 01:51:47;;;;;;;6.70;5.60;;;14.40;99.90;;;;;;5097280;28;20817;-73
2021/10/07 01:54:15;;;;;;;7.17;5.50;;;14.40;99.90;;;;;;5107389;28;20246;-73
2021/10/07 01:56:42;;;;;;;7.90;5.83;;;14.40;99.90;;;;;;5096291;28;20290;-73
2021/10/07 01:59:09;;;;;;;7.77;5.97;;;14.40;99.90;;;;;;5099910;28;20263;-73
2021/10/07 02:01:37;;;;;;;6.43;5.07;;;14.40;99.90;;;;;;5100881;28;20654;-73
2021/10/07 02:04:06;;;;;;;5.77;4.93;;;14.40;99.90;;;;;;5104620;28;20223;-73
2021/10/07 02:06:36;;;;;;;5.57;5.07;;;14.40;99.90;;;;;;5108654;28;20213;-73
2021/10/07 02:09:05;;;;;;;5.60;5.10;;;14.40;99.90;;;;;;5107572;28;20211;-73
2021/10/07 02:11:35;;;;;;;6.90;6.17;;;14.40;99.90;;;;;;5109082;28;20249;-73
2021/10/07 02:14:03;;;;;;;9.67;6.57;;;14.40;99.90;;;;;;5107460;28;20195;-74
2021/10/07 02:16:31;;;;;;;6.97;6.07;;;14.40;99.90;;;;;;5109807;28;20210;-73
2021/10/07 02:18:58;;;;;;;7.60;6.43;;;14.30;99.90;;;;;;5107669;28;20554;-73
2021/10/07 02:21:26;;;;;;;10.53;6.67;;;14.30;99.90;;;;;;5106936;28;20203;-73
2021/10/07 02:23:54;;;;;;;7.83;5.83;;;14.30;99.90;;;;;;5108838;27;20647;-74
2021/10/07 02:26:21;;;;;;;7.67;5.83;;;14.30;99.90;;;;;;5107741;28;20238;-73
2021/10/07 02:28:49;;;;;;;7.27;5.47;;;14.30;99.90;;;;;;5105239;28;20207;-73
2021/10/07 02:31:17;;;;;;;6.90;5.43;;;14.30;99.90;;;;;;5108718;28;20195;-73
2021/10/07 02:33:44;;;;;;;8.00;5.97;;;14.30;99.90;;;;;;5108089;28;20203;-73
2021/10/07 02:36:11;;;;;;;6.73;5.53;;;14.30;99.90;;;;;;5105541;28;20600;-73
2021/10/07 02:38:38;;;;;;;6.63;5.80;;;14.30;99.90;;;;;;5112266;27;20237;-73
2021/10/07 02:41:05;;;;;;;7.47;5.43;;;14.30;99.90;;;;;;5106707;28;20206;-73
2021/10/07 02:43:32;;;;;;;6.47;5.30;;;14.30;99.90;;;;;;5104531;28;20675;-73
2021/10/07 02:46:01;;;;;;;6.13;5.00;;;14.30;99.90;;;;;;5107255;28;20209;-73
2021/10/07 02:48:28;;;;;;;6.10;4.70;;;14.30;99.90;;;;;;5098368;28;20275;-70
2021/10/07 02:50:55;;;;;;;6.03;5.43;;;14.30;99.90;;;;;;5108406;28;20209;-69
2021/10/07 02:53:27;;;;;;;6.30;5.10;;;14.30;99.90;;;;;;5107580;28;20195;-69
2021/10/07 02:55:55;;;;;;;5.60;4.80;;;14.30;99.90;;;;;;5108539;28;20221;-70
2021/10/07 02:58:22;;;;;;;5.70;5.03;;;14.30;99.90;;;;;;5106624;27;20205;-69
2021/10/07 03:00:49;;;;;;;6.53;5.67;;;14.30;99.90;;;;;;5107771;28;20284;-69
2021/10/07 03:03:18;;;;;;;12.77;6.90;;;14.30;99.90;;;;;;5100084;28;20238;-69
2021/10/07 03:05:46;;;;;;;7.13;5.67;;;14.30;99.90;;;;;;5107364;28;20202;-69
2021/10/07 03:08:13;;;;;;;8.63;6.33;;;14.30;99.90;;;;;;5108499;28;20253;-69
2021/10/07 03:10:40;;;;;;;8.97;5.97;;;14.30;99.90;;;;;;5104468;28;20201;-69
2021/10/07 03:13:07;;;;;;;7.43;5.73;;;14.20;99.90;;;;;;5104147;28;20195;-70
2021/10/07 03:15:34;;;;;;;6.93;4.90;;;14.20;99.90;;;;;;5108726;28;20526;-70
2021/10/07 03:18:02;;;;;;;7.33;5.97;;;14.20;99.90;;;;;;5108559;28;20192;-70
2021/10/07 03:20:30;;;;;;;5.10;4.60;;;14.20;99.90;;;;;;5106691;28;20690;-70
2021/10/07 03:22:57;;;;;;;4.97;4.47;;;14.30;99.90;;;;;;5107915;28;20293;-70
2021/10/07 03:25:24;;;;;;;6.57;5.67;;;14.30;99.90;;;;;;5108185;28;20686;-70
2021/10/07 03:27:51;;;;;;;5.70;4.80;;;14.30;99.90;;;;;;5105016;28;20200;-70
2021/10/07 03:30:18;;;;;;;8.73;5.50;;;14.30;99.90;;;;;;5106380;28;20211;-69
2021/10/07 03:32:45;;;;;;;6.47;4.90;;;14.30;99.90;;;;;;5106077;28;20305;-69
2021/10/07 03:35:12;;;;;;;7.73;5.30;;;14.30;99.90;;;;;;5107965;28;20218;-69
2021/10/07 03:37:41;;;;;;;7.73;4.73;;;14.20;99.90;;;;;;5107906;28;20517;-69
2021/10/07 03:40:10;;;;;;;7.83;4.97;;;14.20;99.90;;;;;;5108010;28;20196;-69
2021/10/07 03:42:37;;;;;;;6.43;4.77;;;14.30;99.90;;;;;;5103734;28;20663;-69
2021/10/07 03:45:06;;;;;;;4.83;4.33;;;14.20;99.90;;;;;;5108071;28;20709;-69
2021/10/07 03:47:33;;;;;;;5.80;4.87;;;14.20;99.90;;;;;;5099043;28;20605;-69
2021/10/07 03:50:00;;;;;;;7.33;5.97;;;14.20;99.90;;;;;;5097428;28;20206;-69
2021/10/07 03:52:27;;;;;;;8.20;5.50;;;14.10;99.90;;;;;;5106845;28;20562;-70
2021/10/07 03:54:56;;;;;;;8.10;5.73;;;14.10;99.90;;;;;;5106771;28;20215;-70
2021/10/07 03:57:26;;;;;;;7.70;5.33;;;14.10;99.90;;;;;;5103815;28;20634;-70
2021/10/07 03:59:53;;;;;;;7.60;5.40;;;14.00;99.90;;;;;;5106738;28;20555;-70
2021/10/07 04:02:20;;;;;;;10.80;6.13;;;14.00;99.90;;;;;;5103753;28;20246;-70
2021/10/07 04:04:47;;;;;;;7.90;5.60;;;14.00;99.90;;;;;;5106464;28;20555;-70
2021/10/07 04:07:15;;;;;;;8.07;5.73;;;14.00;99.90;;;;;;5107307;28;20689;-70
2021/10/07 04:09:42;;;;;;;7.03;5.00;;;13.90;99.90;;;;;;5106580;28;20681;-70
2021/10/07 04:12:11;;;;;;;7.50;5.50;;;14.00;99.90;;;;;;5106177;28;20551;-70
2021/10/07 04:14:38;;;;;;;6.53;5.30;;;14.00;99.90;;;;;;5111038;28;20198;-70
2021/10/07 04:17:05;;;;;;;5.53;4.90;;;13.90;99.90;;;;;;5111758;28;20251;-70
2021/10/07 04:19:32;;;;;;;6.67;5.70;;;13.90;99.90;;;;;;5110652;28;20209;-70
2021/10/07 04:21:59;;;;;;;6.73;5.07;;;13.90;99.90;;;;;;5112116;27;20198;-70
2021/10/07 04:24:26;;;;;;;5.73;5.13;;;13.90;99.90;;;;;;5110500;27;20286;-69
2021/10/07 04:26:53;;;;;;;6.67;5.30;;;13.90;99.90;;;;;;5109378;27;20632;-70
2021/10/07 04:29:21;;;;;;;5.80;5.20;;;13.90;99.90;;;;;;5109092;28;20212;-70
2021/10/07 04:31:49;;;;;;;5.53;4.57;;;13.90;99.90;;;;;;5109718;28;20646;-70
2021/10/07 04:34:16;;;;;;;4.20;3.80;;;13.90;99.90;;;;;;5110482;28;20249;-70
2021/10/07 04:36:43;;;;;;;6.33;4.83;;;13.90;99.90;;;;;;5109484;28;20210;-70
2021/10/07 04:39:10;;;;;;;5.33;4.77;;;13.90;99.90;;;;;;5109230;28;20629;-70
2021/10/07 04:41:37;;;;;;;5.67;4.93;;;13.90;99.90;;;;;;5110520;27;20225;-70
2021/10/07 04:44:04;;;;;;;5.33;4.10;;;13.90;99.90;;;;;;5109000;28;20200;-70
2021/10/07 04:46:32;;;;;;;7.53;4.93;;;13.90;99.90;;;;;;5109786;28;20205;-70
2021/10/07 04:48:59;;;;;;;10.20;5.13;;;13.90;99.90;;;;;;5106529;28;20548;-69
2021/10/07 04:51:26;;;;;;;8.63;5.63;;;13.90;99.90;;;;;;5110242;28;20679;-69
2021/10/07 04:53:53;;;;;;;8.20;5.77;;;13.90;99.90;;;;;;5109002;28;20262;-70
2021/10/07 04:56:20;;;;;;;6.20;4.97;;;13.80;99.90;;;;;;5110796;28;20242;-70
2021/10/07 04:58:49;;;;;;;6.63;5.47;;;13.80;99.90;;;;;;5106843;28;20745;-70
2021/10/07 05:01:19;;;;;;;4.60;4.20;;;13.90;99.90;;;;;;5106633;27;20194;-69
2021/10/07 05:03:48;;;;;;;6.27;4.47;;;13.90;99.90;;;;;;5109832;28;20709;-70
2021/10/07 05:06:15;;;;;;;6.50;4.60;;;13.90;99.90;;;;;;5103350;28;20198;-70
2021/10/07 05:08:42;;;;;;;4.40;4.00;;;13.90;99.90;;;;;;5103565;28;20682;-70
2021/10/07 05:11:09;;;;;;;4.77;4.37;;;13.90;99.90;;;;;;5108958;28;20216;-70
2021/10/07 05:13:36;;;;;;;5.03;4.50;;;13.90;99.90;;;;;;5107833;28;20201;-70
2021/10/07 05:16:03;;;;;;;5.67;5.10;;;13.90;99.90;;;;;;5109371;28;20254;-70
2021/10/07 05:18:30;;;;;;;11.30;5.80;;;13.90;99.90;;;;;;5108359;27;20197;-70
2021/10/07 05:20:58;;;;;;;7.93;6.07;;;13.90;99.90;;;;;;5107171;28;20201;-70
2021/10/07 05:23:25;;;;;;;7.63;5.27;;;13.90;99.90;;;;;;5109639;28;20211;-70
2021/10/07 05:25:52;;;;;;;4.67;4.27;;;13.90;99.90;;;;;;5109276;28;20190;-70
2021/10/07 05:28:19;;;;;;;5.03;4.40;;;13.90;99.90;;;;;;5108215;28;20224;-70
2021/10/07 05:30:48;;;;;;;8.97;5.20;;;13.90;99.90;;;;;;5109028;28;20203;-70
2021/10/07 05:33:15;;;;;;;6.20;5.30;;;13.90;99.90;;;;;;5109431;28;20198;-70
2021/10/07 05:35:42;;;;;;;9.50;6.80;;;13.90;99.90;;;;;;5109989;28;20334;-70
2021/10/07 05:38:11;;;;;;;8.33;6.30;;;13.90;99.90;;;;;;5114574;27;20595;-70
2021/10/07 05:40:38;;;;;;;7.40;6.03;;;13.90;99.90;;;;;;5110129;28;20286;-70
2021/10/07 05:43:05;;;;;;;6.80;5.23;;;13.90;99.90;;;;;;5104263;28;20213;-70
2021/10/07 05:45:32;;;;;;;6.40;5.33;;;13.90;99.90;;;;;;5099784;27;20193;-70
2021/10/07 05:47:59;;;;;;;5.33;4.70;;;13.90;99.90;;;;;;5099429;28;20363;-70
2021/10/07 05:50:26;;;;;;;5.93;4.90;;;13.90;99.90;;;;;;5108773;28;20209;-69
2021/10/07 05:52:53;;;;;;;4.97;4.43;;;14.00;99.90;;;;;;5108809;28;20646;-70
2021/10/07 05:55:21;;;;;;;5.17;4.20;;;14.00;99.90;;;;;;5107940;28;20222;-70
2021/10/07 05:57:48;;;;;;;6.80;4.77;;;14.00;99.90;;;;;;5107315;27;20212;-69
2021/10/07 06:00:16;;;;;;;5.30;4.87;;;14.00;99.90;;;;;;5107892;28;20197;-70
2021/10/07 06:02:43;;;;;;;5.20;4.47;;;14.00;99.90;;;;;;5107076;27;20329;-70
2021/10/07 06:05:11;;;;;;;4.87;4.47;;;14.10;99.90;;;;;;5109289;28;20199;-70
2021/10/07 06:07:38;;;;;;;5.77;4.33;;;14.10;99.90;;;;;;5107273;28;20210;-70
2021/10/07 06:10:08;;;;;;;6.40;5.30;;;14.10;99.90;;;;;;5103473;28;20305;-70
2021/10/07 06:12:36;;;;;;;5.47;4.00;;;14.10;99.90;;;;;;5108383;27;20313;-70
2021/10/07 06:15:04;;;;;;;6.93;5.27;;;14.10;99.90;;;;;;5109667;28;20297;-70
2021/10/07 06:17:31;;;;;;;5.47;4.97;;;14.10;99.90;;;;;;5108137;28;20662;-70
2021/10/07 06:20:03;;;;;;;5.53;5.03;;;14.10;99.90;;;;;;5106075;28;20211;-70
2021/10/07 06:22:30;;;;;;;5.00;4.50;;;14.10;99.90;;;;;;5107478;28;20244;-69
2021/10/07 06:24:57;;;;;;;5.90;4.37;;;14.10;99.90;;;;;;5108917;28;20650;-70
2021/10/07 06:27:24;;;;;;;6.20;5.40;;;14.10;99.90;;;;;;5106328;28;20181;-69
2021/10/07 06:29:53;;;;;;;5.77;4.90;;;14.10;99.90;;;;;;5109534;28;20642;-71
2021/10/07 06:32:20;;;;;;;6.90;4.50;;;14.10;99.90;;;;;;5106603;28;20681;-70
2021/10/07 06:34:47;;;;;;;4.57;4.17;;;14.10;99.90;;;;;;5108970;28;20275;-70
2021/10/07 06:37:14;;;;;;;6.73;5.23;;;14.20;99.90;;;;;;5106447;28;20558;-70
2021/10/07 06:39:41;;;;;;;4.77;4.37;;;14.10;99.90;;;;;;5109505;28;20212;-71
2021/10/07 06:42:08;;;;;;;4.63;4.23;;;14.10;99.90;;;;;;5107885;28;20612;-68
2021/10/07 06:44:36;;;;;;;7.90;5.57;;;14.10;99.90;;;;;;5106940;28;20728;-69
2021/10/07 06:47:05;;;;;;;4.70;4.30;;;14.10;99.90;;;;;;5103064;28;20199;-70
2021/10/07 06:49:32;;;;;;;5.63;4.73;;;14.20;99.90;;;;;;5105175;27;20562;-69
2021/10/07 06:51:59;;;;;;;6.37;5.07;;;14.20;99.90;;;;;;5107607;28;20210;-69
2021/10/07 06:54:26;;;;;;;4.87;4.30;;;14.20;99.90;;;;;;5106941;28;20195;-69
2021/10/07 06:56:54;;;;;;;5.23;4.37;;;14.20;99.90;;;;;;5106664;28;20229;-69
2021/10/07 06:59:21;;;;;;;4.40;3.97;;;14.20;99.90;;;;;;5105812;28;20292;-70
2021/10/07 07:01:48;;;;;;;10.07;5.10;;;14.20;99.90;;;;;;5108104;28;20198;-70
2021/10/07 07:04:16;;;;;;;7.30;5.33;;;14.20;99.90;;;;;;5107494;28;20232;-70
2021/10/07 07:06:43;;;;;;;6.47;5.20;;;14.10;99.90;;;;;;5106790;28;20269;-70
2021/10/07 07:09:11;;;;;;;5.93;5.33;;;14.10;99.90;;;;;;5106186;28;20209;-70
2021/10/07 07:11:38;;;;;;;5.60;5.00;;;14.10;99.90;;;;;;5108102;28;20201;-69
2021/10/07 07:14:06;;;;;;;5.47;4.87;;;14.20;99.90;;;;;;5104432;28;20193;-70
2021/10/07 07:16:33;;;;;;;5.03;4.53;;;14.20;99.90;;;;;;5105971;28;20244;-69
2021/10/07 07:19:00;;;;;;;4.80;4.30;;;14.20;99.90;;;;;;5106565;28;20210;-70
2021/10/07 07:21:31;;;;;;;5.60;4.70;;;14.30;99.90;;;;;;5106190;28;20244;-71
2021/10/07 07:23:59;;;;;;;5.23;4.27;;;14.30;99.90;;;;;;5110375;28;20208;-70
2021/10/07 07:26:26;;;;;;;7.20;5.00;;;14.30;99.90;;;;;;5106433;28;20199;-70
2021/10/07 07:28:53;;;;;;;5.30;4.50;;;14.40;99.90;;;;;;5104796;28;20252;-70
2021/10/07 07:31:21;;;;;;;4.83;4.33;;;14.40;99.90;;;;;;5107169;28;20585;-70
2021/10/07 07:33:48;;;;;;;6.40;4.40;;;14.40;99.90;;;;;;5099686;28;20210;-70
2021/10/07 07:36:15;;;;;;;8.93;5.70;;;14.40;99.90;;;;;;5101443;28;20241;-71
2021/10/07 07:38:44;;;;;;;7.87;5.23;;;14.30;99.90;;;;;;5106325;28;20681;-70
2021/10/07 07:41:11;;;;;;;6.33;4.60;;;14.30;99.90;;;;;;5101252;28;20294;-70
2021/10/07 07:43:38;;;;;;;5.93;4.90;;;14.40;99.90;;;;;;5103726;28;20293;-70
2021/10/07 07:46:06;;;;;;;5.30;4.70;;;14.40;99.90;;;;;;5106187;28;20229;-70
2021/10/07 07:48:33;;;;;;;7.90;4.80;;;14.50;99.90;;;;;;5101277;28;20203;-70
2021/10/07 07:51:01;;;;;;;6.50;5.00;;;14.50;99.90;;;;;;5112429;28;20187;-71
2021/10/07 07:53:28;;;;;;;5.43;4.40;;;14.60;99.90;;;;;;5111850;28;20305;-70
2021/10/07 07:55:57;;;;;;;4.60;4.17;;;14.60;99.90;;;;;;5111905;28;20186;-70
2021/10/07 07:58:24;;;;;;;5.83;3.60;;;14.70;99.90;;;;;;5109970;28;20202;-70
2021/10/07 08:00:51;;;;;;;4.83;4.13;;;14.70;99.90;;;;;;5102594;27;20198;-70
2021/10/07 08:03:18;;;;;;;5.50;4.47;;;14.80;99.90;;;;;;5109343;28;20235;-70
2021/10/07 08:05:45;;;;;;;4.70;4.30;;;14.90;99.90;;;;;;5110618;28;20684;-70
2021/10/07 08:08:12;;;;;;;7.60;5.13;;;14.90;99.90;;;;;;5110097;28;20195;-70
2021/10/07 08:10:39;;;;;;;5.70;4.57;;;15.00;99.90;;;;;;5110839;28;20672;-70
2021/10/07 08:13:07;;;;;;;9.57;6.20;;;15.10;99.90;;;;;;5098871;28;20202;-71
2021/10/07 08:15:34;;;;;;;6.60;5.70;;;15.30;99.90;;;;;;5109917;28;20264;-70
2021/10/07 08:18:01;;;;;;;6.03;5.43;;;15.40;99.90;;;;;;5111049;28;20273;-70
2021/10/07 08:20:29;;;;;;;6.23;5.23;;;15.50;99.90;;;;;;5106900;28;20207;-70
2021/10/07 08:22:57;;;;;;;7.03;5.40;;;15.80;99.90;;;;;;5109786;28;20207;-69
2021/10/07 08:25:25;;;;;;;7.63;5.90;;;16.20;99.90;;;;;;5111077;28;20200;-70
2021/10/07 08:27:53;;;;;;;7.73;6.23;;;16.50;99.90;;;;;;5109418;28;20184;-70
2021/10/07 08:30:21;;;;;;;6.37;5.17;;;16.90;99.90;;;;;;5111071;28;20217;-70
2021/10/07 08:32:48;;;;;;;5.97;5.27;;;17.20;99.90;;;;;;5111105;28;20219;-70
2021/10/07 08:35:16;;;;;;;8.23;5.73;;;17.40;99.90;;;;;;5111185;28;20190;-70
2021/10/07 08:37:43;;;;;;;6.90;5.10;;;17.60;99.90;;;;;;5113726;27;20220;-69
2021/10/07 08:40:11;;;;;;;5.53;5.03;;;17.70;99.90;;;;;;5109709;28;20202;-70
2021/10/07 08:42:39;;;;;;;7.63;5.13;;;17.70;99.90;;;;;;5108404;28;20211;-69
2021/10/07 08:45:07;;;;;;;6.80;5.10;;;17.70;99.90;;;;;;5109087;28;20202;-70
2021/10/07 08:47:40;;;;;;;4.90;4.40;;;17.70;99.90;;;;;;5105302;28;20532;-70
2021/10/07 08:50:08;;;;;;;5.03;4.53;;;17.80;99.90;;;;;;5097539;28;20254;-71
2021/10/07 08:52:35;;;;;;;4.33;3.90;;;17.90;99.90;;;;;;5108111;28;20196;-70
2021/10/07 08:55:02;;;;;;;4.10;3.70;;;18.10;99.90;;;;;;5109673;28;20207;-70
2021/10/07 08:57:29;;;;;;;5.50;4.72;;;18.20;99.90;;;;;;5107911;28;20629;-70
2021/10/07 08:59:57;;;;;;;4.85;4.38;;;18.50;99.90;;;;;;5110466;28;20195;-70
2021/10/07 09:02:26;;;;;;;4.07;3.67;;;18.70;99.90;;;;;;5107856;28;20578;-70
2021/10/07 09:04:55;;;;;;;3.42;3.22;;;18.90;99.90;;;;;;5109572;28;20737;-70
2021/10/07 09:07:22;;;;;;;4.38;3.92;;;19.10;99.90;;;;;;5109877;27;20401;-70
2021/10/07 09:09:56;;;;;;;4.88;4.38;;;19.20;99.90;;;;;;5108366;28;20655;-69
2021/10/07 09:12:23;;;;;;;5.10;4.53;;;19.30;99.90;;;;;;5107497;27;20200;-70
2021/10/07 09:14:51;;;;;;;6.45;4.75;;;19.30;99.90;;;;;;5109816;28;20322;-70
2021/10/07 09:17:21;;;;;;;5.63;4.38;;;19.40;99.90;;;;;;5114365;27;20381;-70
2021/10/07 09:19:50;;;;;;;4.95;4.50;;;19.50;99.90;;;;;;5110215;28;20310;-69
2021/10/07 09:22:23;;;;;;;6.35;4.20;;;19.60;99.90;;;;;;5107794;28;20196;-70
2021/10/07 09:24:52;;;;;;;4.35;3.95;;;19.70;99.90;;;;;;5109044;28;20209;-70
2021/10/07 09:27:22;;;;;;;4.32;3.92;;;19.90;99.70;;;;;;5105431;28;20363;-70
2021/10/07 09:29:55;;;;;;;6.97;4.35;;;20.20;99.20;;;;;;5109144;28;20207;-70
2021/10/07 09:32:27;;;;;;;6.22;4.78;;;20.90;98.80;;;;;;5109768;28;20266;-70
2021/10/07 09:34:57;;;;;;;5.25;4.55;;;22.10;97.40;;;;;;5109557;28;20252;-70
2021/10/07 09:37:37;;;;;;;5.88;5.13;;;23.60;95.50;;;;;;5107497;28;20625;-71
2021/10/07 09:40:10;;;;;;;5.85;4.05;;;24.90;93.10;;;;;;5108303;28;20196;-71
2021/10/07 09:42:40;;;;;;;7.60;4.55;;;26.10;90.20;;;;;;5107499;28;20493;-71
2021/10/07 09:45:13;;;;;;;5.28;3.88;;;26.90;85.50;;;;;;5107850;28;20406;-72
2021/10/07 09:47:43;;;;;;;4.15;3.80;;;27.60;81.60;;;;;;5098519;28;20196;-71
2021/10/07 09:50:17;;;;;;;4.55;4.15;;;28.30;78.20;;;;;;5107454;27;20215;-71
2021/10/07 09:52:47;;;;;;;4.00;3.70;;;28.60;73.90;;;;;;5108733;28;20671;-71
2021/10/07 09:55:17;;;;;;;4.60;4.15;;;28.50;72.60;;;;;;5108406;28;20196;-71
2021/10/07 09:58:06;;;;;;;6.82;3.92;;;28.80;70.70;;;;;;5105096;28;20361;-71
2021/10/07 10:00:36;;;;;;;3.33;3.13;;;29.00;68.80;;;;;;5046408;28;20232;-70
2021/10/07 10:03:05;;;;;;;4.18;3.78;;;28.70;68.30;;;;;;5044338;28;20316;-70
2021/10/07 10:05:34;;;;;;;4.40;3.97;;;28.60;67.30;;;;;;5026830;28;20214;-71
2021/10/07 10:08:03;;;;;;;4.20;3.45;;;28.90;66.50;;;;;;5026025;28;20203;-70
2021/10/07 10:10:31;;;;;;;4.13;3.70;;;29.60;65.30;;;;;;5040791;28;20208;-70
2021/10/07 10:12:58;;;;;;;5.93;5.20;;;30.20;62.70;;;;;;5023909;28;20213;-70
2021/10/07 10:15:25;;;;;;;5.80;5.30;;;30.60;58.70;;;;;;5022740;28;20194;-70
2021/10/07 10:17:52;;;;;;;7.68;5.97;;;30.70;56.20;;;;;;5045949;28;20230;-70
2021/10/07 10:20:23;;;;;;;6.30;5.28;;;30.80;55.50;;;;;;5043196;28;20662;-70
2021/10/07 10:22:54;;;;;;;4.80;4.15;;;31.00;55.00;;;;;;5041915;28;20198;-71
2021/10/07 10:25:23;;;;;;;5.05;4.45;;;31.20;54.20;;;;;;5045778;28;20232;-70
2021/10/07 10:27:53;;;;;;;3.92;3.63;;;31.30;53.80;;;;;;5027058;28;20196;-71
2021/10/07 10:30:27;;;;;;;8.70;5.03;;;31.60;53.50;;;;;;5046527;28;20206;-70
2021/10/07 10:32:56;;;;;;;6.70;5.53;;;31.80;52.30;;;;;;5045138;28;21555;-71
2021/10/07 10:35:35;;;;;;;7.40;5.97;;;32.10;51.90;;;;;;5027870;28;20760;-71
2021/10/07 10:38:04;;;;;;;6.45;5.75;;;32.50;51.00;;;;;;5081798;28;20667;-71
2021/10/07 10:40:32;;;;;;;6.32;5.82;;;32.80;49.70;;;;;;5109033;28;20192;-71
2021/10/07 10:43:37;;;;;;;6.22;5.30;;;32.80;48.30;;;;;;5106206;28;20239;-71
2021/10/07 10:46:15;;;;;;;6.13;5.53;;;32.90;48.30;;;;;;5031317;28;20201;-71
2021/10/07 10:48:54;;;;;;;7.05;5.68;;;33.00;47.50;;;;;;5016601;28;20230;-71
2021/10/07 10:51:23;;;;;;;9.88;6.82;;;33.00;46.90;;;;;;5009200;28;20672;-71
2021/10/07 10:53:57;;;;;;;8.25;6.22;;;33.00;45.40;;;;;;5008848;28;20809;-71
2021/10/07 10:56:29;;;;;;;6.03;5.43;;;32.80;44.60;;;;;;5007683;28;20203;-71
2021/10/07 10:59:20;;;;;;;5.78;5.18;;;32.60;45.20;;;;;;4999775;28;20788;-71
2021/10/07 11:02:27;;;;;;;6.30;5.55;;;32.70;45.60;;;;;;5017401;28;20627;-71
2021/10/07 11:04:56;;;;;;;5.13;4.70;;;32.90;45.10;;;;;;5011265;28;20190;-71
2021/10/07 11:07:27;;;;;;;4.75;4.40;;;33.00;44.90;;;;;;5011563;28;20217;-71
2021/10/07 11:10:00;;;;;;;4.47;4.07;;;33.00;44.60;;;;;;5012797;28;20207;-71
2021/10/07 11:12:34;;;;;;;4.50;4.20;;;32.90;45.20;;;;;;5020956;28;20593;-71
2021/10/07 11:15:01;;;;;;;4.38;4.03;;;32.50;44.60;;;;;;5010328;28;20198;-71
2021/10/07 11:17:32;;;;;;;5.22;4.80;;;32.00;44.80;;;;;;5007752;28;20287;-70
2021/10/07 11:19:59;;;;;;;4.85;4.32;;;31.30;44.90;;;;;;5048461;28;20207;-70
2021/10/07 11:22:27;;;;;;;4.53;4.13;;;30.60;45.60;;;;;;5106750;28;20200;-70
2021/10/07 11:24:56;;;;;;;5.80;4.43;;;30.10;45.90;;;;;;5108796;28;20219;-70
2021/10/07 11:27:36;;;;;;;4.22;3.92;;;29.50;46.40;;;;;;5100491;28;20184;-70
2021/10/07 11:30:05;;;;;;;7.70;4.80;;;29.10;47.00;;;;;;5108387;28;20196;-70
2021/10/07 11:32:32;;;;;;;4.82;4.43;;;28.90;46.90;;;;;;5106728;28;20196;-71
2021/10/07 11:35:05;;;;;;;7.10;4.70;;;28.90;46.80;;;;;;5106657;28;20995;-71
2021/10/07 11:37:55;;;;;;;5.13;4.68;;;28.90;46.80;;;;;;5104717;28;20235;-70
2021/10/07 11:40:26;;;;;;;4.65;4.35;;;28.60;46.90;;;;;;5097191;28;20332;-70
2021/10/07 11:42:56;;;;;;;5.95;5.25;;;28.00;47.40;;;;;;5098635;28;20200;-70
2021/10/07 11:45:25;;;;;;;5.97;5.30;;;27.40;47.80;;;;;;5108577;28;20291;-70
2021/10/07 11:47:53;;;;;;;5.20;4.70;;;26.70;48.30;;;;;;5097088;28;20664;-70
2021/10/07 11:50:22;;;;;;;7.43;6.30;;;26.10;49.50;;;;;;5108066;28;20195;-69
2021/10/07 11:52:50;;;;;;;6.07;4.47;;;25.40;49.60;;;;;;5106358;28;20207;-70
2021/10/07 11:55:18;;;;;;;7.93;5.07;;;24.90;50.30;;;;;;5106623;28;20655;-70
2021/10/07 11:57:51;;;;;;;7.88;6.03;;;24.50;50.90;;;;;;5101921;28;20215;-70
2021/10/07 12:00:43;;;;;;;5.50;5.00;;;24.10;51.30;;;;;;5106595;28;20773;-70
2021/10/07 12:03:27;;;;;;;6.40;5.18;;;23.70;51.80;;;;;;5107142;28;20254;-70
2021/10/07 12:06:01;;;;;;;6.90;4.65;;;23.30;52.40;;;;;;5105997;28;20290;-69
2021/10/07 12:08:32;;;;;;;5.15;4.45;;;23.00;53.00;;;;;;5106783;28;20203;-69
2021/10/07 12:11:00;;;;;;;5.05;4.43;;;22.70;53.40;;;;;;5104299;28;20202;-70
2021/10/07 12:13:30;;;;;;;4.90;4.50;;;22.50;53.80;;;;;;5105382;28;20595;-70
2021/10/07 12:16:01;;;;;;;6.50;5.43;;;22.20;54.10;;;;;;5101966;28;20567;-70
2021/10/07 12:18:29;;;;;;;5.85;5.18;;;21.90;54.50;;;;;;5106589;28;20227;-71
2021/10/07 12:21:09;;;;;;;5.10;4.53;;;21.70;55.10;;;;;;5105798;28;20196;-69
2021/10/07 12:23:57;;;;;;;5.75;5.07;;;21.40;55.50;;;;;;5105870;28;20206;-69
2021/10/07 12:26:33;;;;;;;6.15;4.78;;;21.30;56.20;;;;;;5100488;28;20598;-69
2021/10/07 12:29:02;;;;;;;5.18;4.05;;;21.10;56.60;;;;;;5099707;28;20285;-70
2021/10/07 12:31:32;;;;;;;7.90;4.93;;;20.90;57.00;;;;;;5108098;28;20231;-70
2021/10/07 12:34:01;;;;;;;9.27;4.88;;;20.80;57.50;;;;;;5108077;28;20733;-69
2021/10/07 12:36:38;;;;;;;6.38;4.53;;;20.70;57.80;;;;;;5111745;28;20195;-70
2021/10/07 12:39:06;;;;;;;4.93;4.43;;;20.70;58.30;;;;;;5110372;28;20208;-70
2021/10/07 12:41:37;;;;;;;4.90;4.30;;;20.50;58.50;;;;;;5111374;28;20192;-70
2021/10/07 12:44:05;;;;;;;4.93;4.40;;;20.40;58.80;;;;;;5109725;28;20202;-70
2021/10/07 12:46:46;;;;;;;4.30;3.90;;;20.30;59.30;;;;;;5109424;28;20738;-70
2021/10/07 12:49:13;;;;;;;4.65;4.18;;;20.20;59.60;;;;;;5105737;28;20192;-70
2021/10/07 12:51:46;;;;;;;10.75;5.50;;;20.10;59.80;;;;;;5110564;28;20199;-70
2021/10/07 12:54:15;;;;;;;8.80;4.95;;;20.00;60.10;;;;;;5109376;28;20203;-70
2021/10/07 12:56:43;;;;;;;5.20;4.15;;;19.90;60.50;;;;;;5101443;28;20196;-70